createdAt,value
2019-04-27T00:00:58.875Z,39.70
2019-04-27T00:03:28.100Z,34.33
2019-04-27T00:05:59.149Z,38.20
2019-04-27T00:08:35.062Z,37.03
2019-04-27T00:11:06.849Z,40.52
2019-04-27T00:13:40.416Z,42.57
2019-04-27T00:16:10.015Z,35.25
2019-04-27T00:18:40.410Z,38.63
2019-04-27T00:21:11.607Z,40.70
2019-04-27T00:23:42.998Z,40.08
2019-04-27T00:26:13.108Z,33.53
2019-04-27T00:28:43.422Z,38.28
2019-04-27T00:31:13.315Z,27.37
2019-04-27T00:33:43.470Z,36.23
2019-04-27T00:36:14.936Z,29.37
2019-04-27T00:38:46.280Z,41.28
2019-04-27T00:41:19.147Z,33.38
2019-04-27T00:43:48.974Z,39.27
2019-04-27T00:46:19.625Z,37.55
2019-04-27T00:48:50.539Z,35.98
2019-04-27T00:51:20.146Z,36.45
2019-04-27T00:53:49.656Z,44.67
2019-04-27T00:56:20.924Z,39.67
2019-04-27T00:58:53.594Z,40.03
2019-04-27T01:01:24.934Z,36.42
2019-04-27T01:03:56.278Z,37.98
2019-04-27T01:06:25.873Z,46.10
2019-04-27T01:08:55.524Z,45.58
2019-04-27T01:11:25.200Z,34.03
2019-04-27T01:13:54.774Z,40.35
2019-04-27T01:16:24.394Z,43.30
2019-04-27T01:18:53.918Z,30.65
2019-04-27T01:21:23.408Z,45.85
2019-04-27T01:23:53.028Z,44.05
2019-04-27T01:26:24.583Z,49.27
2019-04-27T01:28:55.716Z,32.10
2019-04-27T01:31:25.193Z,38.08
2019-04-27T01:33:54.732Z,47.35
2019-04-27T01:36:24.126Z,41.90
2019-04-27T01:38:53.597Z,39.88
2019-04-27T01:41:23.142Z,50.33
2019-04-27T01:43:52.498Z,37.95
2019-04-27T01:46:21.951Z,37.63
2019-04-27T01:48:51.440Z,36.58
2019-04-27T01:51:21.158Z,32.78
2019-04-27T01:53:50.758Z,32.03
2019-04-27T01:56:20.362Z,41.55
2019-04-27T01:58:50.293Z,39.10
2019-04-27T02:01:21.632Z,43.28
2019-04-27T02:03:53.104Z,43.55
2019-04-27T02:06:24.228Z,42.67
2019-04-27T02:08:53.839Z,36.28
2019-04-27T02:11:23.439Z,44.85
2019-04-27T02:13:53.030Z,38.00
2019-04-27T02:16:22.557Z,35.05
2019-04-27T02:18:52.165Z,33.73
2019-04-27T02:21:21.997Z,41.80
2019-04-27T02:23:51.658Z,53.98
2019-04-27T02:26:22.697Z,43.95
2019-04-27T02:28:53.723Z,37.90
2019-04-27T02:31:24.769Z,32.67
2019-04-27T02:33:55.786Z,41.45
2019-04-27T02:36:25.355Z,41.10
2019-04-27T02:38:54.859Z,31.05
2019-04-27T02:41:24.311Z,32.48
2019-04-27T02:43:55.589Z,40.60
2019-04-27T02:46:25.121Z,42.23
2019-04-27T02:49:00.064Z,30.10
2019-04-27T02:51:27.324Z,43.08
2019-04-27T02:54:00.234Z,43.87
2019-04-27T02:56:30.529Z,47.85
2019-04-27T02:59:00.323Z,31.70
2019-04-27T03:01:31.573Z,43.42
2019-04-27T03:04:01.364Z,46.08
2019-04-27T03:06:30.841Z,45.20
2019-04-27T03:09:00.838Z,40.20
2019-04-27T03:11:32.460Z,30.57
2019-04-27T03:14:03.629Z,37.42
2019-04-27T03:16:34.758Z,42.33
2019-04-27T03:19:14.971Z,39.08
2019-04-27T03:21:39.600Z,37.95
2019-04-27T03:24:09.925Z,41.65
2019-04-27T03:26:41.951Z,43.65
2019-04-27T03:29:11.875Z,34.83
2019-04-27T03:31:42.568Z,46.40
2019-04-27T03:34:16.340Z,39.25
2019-04-27T03:36:43.971Z,39.75
2019-04-27T03:39:13.695Z,40.65
2019-04-27T03:41:43.298Z,43.55
2019-04-27T03:44:13.514Z,45.90
2019-04-27T03:46:43.124Z,46.40
2019-04-27T03:49:27.786Z,37.30
2019-04-27T03:51:45.599Z,34.48
2019-04-27T03:54:19.410Z,44.10
2019-04-27T03:56:50.857Z,41.68
2019-04-27T03:59:22.273Z,47.65
2019-04-27T04:01:51.926Z,36.83
2019-04-27T04:04:21.828Z,42.88
2019-04-27T04:06:51.444Z,42.27
2019-04-27T04:09:22.694Z,43.45
2019-04-27T04:11:53.798Z,44.33
2019-04-27T04:14:24.840Z,53.25
2019-04-27T04:17:01.724Z,52.23
2019-04-27T04:19:29.588Z,38.13
2019-04-27T04:21:59.809Z,42.40
2019-04-27T04:24:31.816Z,40.17
2019-04-27T04:27:00.713Z,39.85
2019-04-27T04:29:30.760Z,44.30
2019-04-27T04:32:00.683Z,44.67
2019-04-27T04:34:30.225Z,47.30
2019-04-27T04:37:00.615Z,42.83
2019-04-27T04:39:31.503Z,42.78
2019-04-27T04:42:02.531Z,46.08
2019-04-27T04:44:33.773Z,43.13
2019-04-27T04:47:04.869Z,50.80
2019-04-27T04:49:34.525Z,43.92
2019-04-27T04:52:03.960Z,39.30
2019-04-27T04:54:33.544Z,47.78
2019-04-27T04:57:03.144Z,38.90
2019-04-27T04:59:43.732Z,44.88
2019-04-27T05:02:12.793Z,49.67
2019-04-27T05:04:42.477Z,50.70
2019-04-27T05:07:17.102Z,42.20
2019-04-27T05:09:56.022Z,44.95
2019-04-27T05:12:26.132Z,44.67
2019-04-27T05:14:59.068Z,43.55
2019-04-27T05:17:31.582Z,50.48
2019-04-27T05:20:02.775Z,47.67
2019-04-27T05:22:32.392Z,48.52
2019-04-27T05:25:01.968Z,39.92
2019-04-27T05:27:31.714Z,60.48
2019-04-27T05:30:01.306Z,46.10
2019-04-27T05:32:31.973Z,50.67
2019-04-27T05:35:01.499Z,40.73
2019-04-27T05:37:31.790Z,59.83
2019-04-27T05:40:01.581Z,46.28
2019-04-27T05:42:30.944Z,41.42
2019-04-27T05:45:03.451Z,46.42
2019-04-27T05:47:34.711Z,54.60
2019-04-27T05:50:06.947Z,47.85
2019-04-27T05:52:36.366Z,42.25
2019-04-27T05:55:06.709Z,52.93
2019-04-27T05:57:36.081Z,58.63
2019-04-27T06:00:09.160Z,49.88
2019-04-27T06:02:39.822Z,44.23
2019-04-27T06:05:09.886Z,56.02
2019-04-27T06:07:39.683Z,48.28
2019-04-27T06:10:10.472Z,52.48
2019-04-27T06:12:39.981Z,37.20
2019-04-27T06:15:09.888Z,41.98
2019-04-27T06:17:39.298Z,36.70
2019-04-27T06:20:09.197Z,50.25
2019-04-27T06:22:39.106Z,58.10
2019-04-27T06:25:11.794Z,45.12
2019-04-27T06:27:39.867Z,47.03
2019-04-27T06:30:11.732Z,49.05
2019-04-27T06:32:41.135Z,46.10
2019-04-27T06:35:12.381Z,43.68
2019-04-27T06:37:41.956Z,41.83
2019-04-27T06:40:12.331Z,46.85
2019-04-27T06:42:41.816Z,51.28
2019-04-27T06:45:11.383Z,48.60
2019-04-27T06:47:41.473Z,46.45
2019-04-27T06:50:12.148Z,42.00
2019-04-27T06:52:41.522Z,50.52
2019-04-27T06:55:10.951Z,40.45
2019-04-27T06:57:41.243Z,49.50
2019-04-27T07:00:11.113Z,45.25
2019-04-27T07:02:40.615Z,45.95
2019-04-27T07:05:10.110Z,43.70
2019-04-27T07:07:39.677Z,56.58
2019-04-27T07:10:09.209Z,42.40
2019-04-27T07:12:40.982Z,46.25
2019-04-27T07:15:09.984Z,51.15
2019-04-27T07:17:39.341Z,48.90
2019-04-27T07:20:09.163Z,46.85
2019-04-27T07:22:39.666Z,48.30
2019-04-27T07:25:09.313Z,53.13
2019-04-27T07:27:39.454Z,48.17
2019-04-27T07:30:11.761Z,50.00
2019-04-27T07:32:41.586Z,50.25
2019-04-27T07:35:11.218Z,46.33
2019-04-27T07:37:40.647Z,59.25
2019-04-27T07:40:10.476Z,45.05
2019-04-27T07:42:41.600Z,47.50
2019-04-27T07:45:12.760Z,41.25
2019-04-27T07:47:43.844Z,50.28
2019-04-27T07:50:13.636Z,50.58
2019-04-27T07:52:43.115Z,45.70
2019-04-27T07:55:12.725Z,51.30
2019-04-27T07:57:42.315Z,50.55
2019-04-27T08:00:12.448Z,57.50
2019-04-27T08:02:41.943Z,47.70
2019-04-27T08:05:11.772Z,42.73
2019-04-27T08:07:41.266Z,44.42
2019-04-27T08:10:10.964Z,45.25
2019-04-27T08:12:40.683Z,54.77
2019-04-27T08:15:10.446Z,41.70
2019-04-27T08:17:42.412Z,45.45
2019-04-27T08:20:11.503Z,40.20
2019-04-27T08:22:41.046Z,55.50
2019-04-27T08:25:10.561Z,44.67
2019-04-27T08:27:41.713Z,49.27
2019-04-27T08:30:12.969Z,42.70
2019-04-27T08:32:44.778Z,47.80
2019-04-27T08:35:14.530Z,40.83
2019-04-27T08:37:44.016Z,43.45
2019-04-27T08:40:13.973Z,54.25
2019-04-27T08:42:43.547Z,40.43
2019-04-27T08:45:13.257Z,40.20
2019-04-27T08:47:42.757Z,33.98
2019-04-27T08:50:12.347Z,36.30
2019-04-27T08:52:42.028Z,43.83
2019-04-27T08:55:11.786Z,42.00
2019-04-27T08:57:41.285Z,31.25
2019-04-27T09:00:11.308Z,43.85
2019-04-27T09:02:46.786Z,39.00
2019-04-27T09:05:12.574Z,34.83
2019-04-27T09:07:43.711Z,44.58
2019-04-27T09:10:13.749Z,47.65
2019-04-27T09:12:44.861Z,42.48
2019-04-27T09:15:16.219Z,31.73
2019-04-27T09:17:48.833Z,43.55
2019-04-27T09:20:20.142Z,45.20
2019-04-27T09:22:49.660Z,39.53
2019-04-27T09:25:19.386Z,38.65
2019-04-27T09:27:49.344Z,40.38
2019-04-27T09:30:20.110Z,34.00
2019-04-27T09:32:49.676Z,25.55
2019-04-27T09:35:19.214Z,28.02
2019-04-27T09:37:48.734Z,32.73
2019-04-27T09:40:21.199Z,33.75
2019-04-27T09:42:50.702Z,29.15
2019-04-27T09:45:21.439Z,29.82
2019-04-27T09:47:50.943Z,28.47
2019-04-27T09:50:21.280Z,22.93
2019-04-27T09:52:50.759Z,28.32
2019-04-27T09:55:21.356Z,26.62
2019-04-27T09:57:50.806Z,34.95
2019-04-27T10:00:21.806Z,34.78
2019-04-27T10:02:51.355Z,25.10
2019-04-27T10:05:20.908Z,30.82
2019-04-27T10:07:50.564Z,27.27
2019-04-27T10:10:20.556Z,22.32
2019-04-27T10:12:50.022Z,35.60
2019-04-27T10:15:20.555Z,23.95
2019-04-27T10:17:49.921Z,31.77
2019-04-27T10:20:20.022Z,29.72
2019-04-27T10:22:49.799Z,33.20
2019-04-27T10:25:20.974Z,26.02
2019-04-27T10:27:55.385Z,29.20
2019-04-27T10:30:25.786Z,28.75
2019-04-27T10:32:55.456Z,24.15
2019-04-27T10:35:26.018Z,40.85
2019-04-27T10:37:55.504Z,23.05
2019-04-27T10:40:26.388Z,36.68
2019-04-27T10:42:56.161Z,25.27
2019-04-27T10:45:29.032Z,20.12
2019-04-27T10:48:00.656Z,33.48
2019-04-27T10:50:30.152Z,24.40
2019-04-27T10:52:59.542Z,30.32
2019-04-27T10:55:29.379Z,28.07
2019-04-27T10:57:59.285Z,22.77
2019-04-27T11:00:30.404Z,23.15
2019-04-27T11:03:01.235Z,23.52
2019-04-27T11:05:33.403Z,28.05
2019-04-27T11:08:02.852Z,24.05
2019-04-27T11:10:32.235Z,19.45
2019-04-27T11:13:01.668Z,20.10
2019-04-27T11:15:31.359Z,29.02
2019-04-27T11:18:00.865Z,19.20
2019-04-27T11:20:30.224Z,29.85
2019-04-27T11:23:07.016Z,23.05
2019-04-27T11:25:30.741Z,27.50
2019-04-27T11:28:00.195Z,21.15
2019-04-27T11:30:29.677Z,15.88
2019-04-27T11:32:59.411Z,20.50
2019-04-27T11:35:30.459Z,23.95
2019-04-27T11:38:00.231Z,23.27
2019-04-27T11:40:31.034Z,26.82
2019-04-27T11:43:00.500Z,26.62
2019-04-27T11:45:34.234Z,24.85
2019-04-27T11:48:06.106Z,21.05
2019-04-27T11:50:35.869Z,29.25
2019-04-27T11:53:06.222Z,22.62
2019-04-27T11:55:35.861Z,29.82
2019-04-27T11:58:06.530Z,20.82
2019-04-27T12:00:37.956Z,24.85
2019-04-27T12:03:07.379Z,26.70
2019-04-27T12:05:36.805Z,29.87
2019-04-27T12:08:06.403Z,33.42
2019-04-27T12:10:36.385Z,24.43
2019-04-27T12:13:07.637Z,25.15
2019-04-27T12:15:37.156Z,33.25
2019-04-27T12:18:08.905Z,31.85
2019-04-27T12:20:37.642Z,29.50
2019-04-27T12:23:07.092Z,26.17
2019-04-27T12:25:37.381Z,29.85
2019-04-27T12:28:08.686Z,25.27
2019-04-27T12:30:39.741Z,30.30
2019-04-27T12:33:09.294Z,28.95
2019-04-27T12:35:38.736Z,24.80
2019-04-27T12:38:08.205Z,21.33
2019-04-27T12:40:37.744Z,29.55
2019-04-27T12:43:08.368Z,21.52
2019-04-27T12:45:40.986Z,27.05
2019-04-27T12:48:09.117Z,21.97
2019-04-27T12:50:38.634Z,18.60
2019-04-27T12:53:09.795Z,21.10
2019-04-27T12:55:40.790Z,21.17
2019-04-27T12:58:11.887Z,20.00
2019-04-27T13:00:45.031Z,28.27
2019-04-27T13:03:16.035Z,24.23
2019-04-27T13:05:45.685Z,23.98
2019-04-27T13:08:15.118Z,19.23
2019-04-27T13:10:44.605Z,24.35
2019-04-27T13:13:14.015Z,31.33
2019-04-27T13:15:43.434Z,30.20
2019-04-27T13:18:12.888Z,19.35
2019-04-27T13:20:42.519Z,22.80
2019-04-27T13:23:12.003Z,27.27
2019-04-27T13:25:41.357Z,34.38
2019-04-27T13:28:11.877Z,22.98
2019-04-27T13:30:41.316Z,23.87
2019-04-27T13:33:10.759Z,28.07
2019-04-27T13:35:40.363Z,24.15
2019-04-27T13:38:11.012Z,26.87
2019-04-27T13:40:41.710Z,21.33
2019-04-27T13:43:12.836Z,24.57
2019-04-27T13:45:42.040Z,29.55
2019-04-27T13:48:13.232Z,28.60
2019-04-27T13:50:47.735Z,31.68
2019-04-27T13:53:18.100Z,23.73
2019-04-27T13:55:48.534Z,30.50
2019-04-27T13:58:19.229Z,33.55
2019-04-27T14:00:49.142Z,40.52
2019-04-27T14:03:20.894Z,38.95
2019-04-27T14:05:49.626Z,39.55
2019-04-27T14:08:19.011Z,34.90
2019-04-27T14:10:48.547Z,32.93
2019-04-27T14:13:19.761Z,35.08
2019-04-27T14:15:49.805Z,34.85
2019-04-27T14:18:19.587Z,37.85
2019-04-27T14:20:49.642Z,40.48
2019-04-27T14:23:21.054Z,37.38
2019-04-27T14:25:50.964Z,44.63
2019-04-27T14:28:20.847Z,47.55
2019-04-27T14:30:50.838Z,39.60
2019-04-27T14:33:20.729Z,33.92
2019-04-27T14:35:50.587Z,25.15
2019-04-27T14:38:20.483Z,37.03
2019-04-27T14:40:59.390Z,43.92
2019-04-27T14:43:33.470Z,42.45
2019-04-27T14:46:05.719Z,68.70
2019-04-27T14:48:35.497Z,102.12
2019-04-27T14:51:05.360Z,42.38
2019-04-27T14:53:35.253Z,60.15
2019-04-27T14:56:05.109Z,60.15
2019-04-27T14:58:35.247Z,46.70
2019-04-27T15:01:05.155Z,39.00
2019-04-27T15:03:34.969Z,45.00
2019-04-27T15:06:04.782Z,35.48
2019-04-27T15:08:38.263Z,39.42
2019-04-27T15:11:10.235Z,44.40
2019-04-27T15:13:37.763Z,30.80
2019-04-27T15:16:08.822Z,34.63
2019-04-27T15:18:43.587Z,35.33
2019-04-27T15:21:11.930Z,50.23
2019-04-27T15:23:41.993Z,47.25
2019-04-27T15:26:15.504Z,31.75
2019-04-27T15:28:49.244Z,26.12
2019-04-27T15:31:23.644Z,33.88
2019-04-27T15:33:54.434Z,25.82
2019-04-27T15:36:23.851Z,28.67
2019-04-27T15:38:55.691Z,27.60
2019-04-27T15:41:31.549Z,27.87
2019-04-27T15:44:07.025Z,32.53
2019-04-27T15:46:36.167Z,33.55
2019-04-27T15:49:09.786Z,36.42
2019-04-27T15:51:38.256Z,40.55
2019-04-27T15:54:08.301Z,34.15
2019-04-27T15:56:38.172Z,34.53
2019-04-27T15:59:08.628Z,33.75
2019-04-27T16:01:39.581Z,33.80
2019-04-27T16:04:11.206Z,43.68
2019-04-27T16:06:42.939Z,36.70
2019-04-27T16:09:15.992Z,38.00
2019-04-27T16:11:50.247Z,43.02
2019-04-27T16:14:15.960Z,36.88
2019-04-27T16:16:46.449Z,36.88
2019-04-27T16:19:15.962Z,36.75
2019-04-27T16:21:47.686Z,40.78
2019-04-27T16:24:20.839Z,53.02
2019-04-27T16:26:54.693Z,32.63
2019-04-27T16:29:22.976Z,36.75
2019-04-27T16:31:50.800Z,44.50
2019-04-27T16:34:20.181Z,36.80
2019-04-27T16:36:49.713Z,39.92
2019-04-27T16:39:20.455Z,43.50
2019-04-27T16:41:50.313Z,37.98
2019-04-27T16:44:20.011Z,37.23
2019-04-27T16:46:49.486Z,42.88
2019-04-27T16:49:20.677Z,44.33
2019-04-27T16:51:50.162Z,38.38
2019-04-27T16:54:21.380Z,45.90
2019-04-27T16:57:02.029Z,46.68
2019-04-27T16:59:42.641Z,47.10
2019-04-27T17:01:55.602Z,43.60
2019-04-27T17:04:25.115Z,51.73
2019-04-27T17:06:54.581Z,46.42
2019-04-27T17:09:24.060Z,49.18
2019-04-27T17:11:53.651Z,44.70
2019-04-27T17:14:29.204Z,39.38
2019-04-27T17:17:03.761Z,44.88
2019-04-27T17:19:35.932Z,48.87
2019-04-27T17:22:04.393Z,50.25
2019-04-27T17:24:42.014Z,47.10
2019-04-27T17:27:06.489Z,65.25
2019-04-27T17:29:38.633Z,49.05
2019-04-27T17:32:09.996Z,52.25
2019-04-27T17:34:39.766Z,52.95
2019-04-27T17:37:09.626Z,48.23
2019-04-27T17:39:39.216Z,55.17
2019-04-27T17:42:08.724Z,49.03
2019-04-27T17:44:39.370Z,46.20
2019-04-27T17:47:10.637Z,52.10
2019-04-27T17:49:41.448Z,50.15
2019-04-27T17:52:13.035Z,53.45
2019-04-27T17:54:47.515Z,49.13
2019-04-27T17:57:13.687Z,54.45
2019-04-27T17:59:43.266Z,48.35
2019-04-27T18:02:12.725Z,50.03
2019-04-27T18:04:42.134Z,47.90
2019-04-27T18:07:11.547Z,47.75
2019-04-27T18:09:43.729Z,79.03
2019-04-27T18:12:14.901Z,52.08
2019-04-27T18:14:43.660Z,44.67
2019-04-27T18:17:14.190Z,55.43
2019-04-27T18:19:45.583Z,53.70
2019-04-27T18:22:15.244Z,45.58
2019-04-27T18:24:46.383Z,53.70
2019-04-27T18:27:18.350Z,51.17
2019-04-27T18:29:48.648Z,52.45
2019-04-27T18:32:23.649Z,69.07
2019-04-27T18:34:51.475Z,72.90
2019-04-27T18:37:24.687Z,54.33
2019-04-27T18:39:54.939Z,48.83
2019-04-27T18:42:27.358Z,46.90
2019-04-27T18:44:54.493Z,56.93
2019-04-27T18:47:25.056Z,62.27
2019-04-27T18:49:54.335Z,48.20
2019-04-27T18:52:25.995Z,50.78
2019-04-27T18:54:55.571Z,59.45
2019-04-27T18:57:24.969Z,50.78
2019-04-27T18:59:54.526Z,57.10
2019-04-27T19:02:24.006Z,52.40
2019-04-27T19:04:53.398Z,52.20
2019-04-27T19:07:22.869Z,54.73
2019-04-27T19:09:52.324Z,54.03
2019-04-27T19:12:21.773Z,46.33
2019-04-27T19:14:51.266Z,58.65
2019-04-27T19:17:21.862Z,49.75
2019-04-27T19:19:51.285Z,50.10
2019-04-27T19:22:20.754Z,52.35
2019-04-27T19:24:50.309Z,51.98
2019-04-27T19:27:21.618Z,46.43
2019-04-27T19:29:52.892Z,49.83
2019-04-27T19:32:22.446Z,50.43
2019-04-27T19:34:51.927Z,49.83
2019-04-27T19:37:21.361Z,51.27
2019-04-27T19:39:50.913Z,49.13
2019-04-27T19:42:20.630Z,49.53
2019-04-27T19:44:50.188Z,51.10
2019-04-27T19:47:19.663Z,50.90
2019-04-27T19:49:49.088Z,47.40
2019-04-27T19:52:18.616Z,52.53
2019-04-27T19:54:49.391Z,45.13
2019-04-27T19:57:30.917Z,42.97
2019-04-27T19:59:53.160Z,54.90
2019-04-27T20:02:23.903Z,92.97
2019-04-27T20:04:55.553Z,57.27
2019-04-27T20:07:26.274Z,71.97
2019-04-27T20:09:58.494Z,62.57
2019-04-27T20:12:28.055Z,75.95
2019-04-27T20:14:57.512Z,46.03
2019-04-27T20:17:28.114Z,53.17
2019-04-27T20:19:58.110Z,60.20
2019-04-27T20:22:27.670Z,56.83
2019-04-27T20:24:57.327Z,61.67
2019-04-27T20:27:26.837Z,54.08
2019-04-27T20:29:56.388Z,53.00
2019-04-27T20:32:25.968Z,52.53
2019-04-27T20:34:55.543Z,68.10
2019-04-27T20:37:24.941Z,63.47
2019-04-27T20:39:54.453Z,58.23
2019-04-27T20:42:23.881Z,76.70
2019-04-27T20:44:53.397Z,55.60
2019-04-27T20:47:22.967Z,54.85
2019-04-27T20:49:52.469Z,58.73
2019-04-27T20:52:23.463Z,59.67
2019-04-27T20:54:52.897Z,53.97
2019-04-27T20:57:22.339Z,55.40
2019-04-27T20:59:52.276Z,54.33
2019-04-27T21:02:24.122Z,56.63
2019-04-27T21:04:57.399Z,56.80
2019-04-27T21:07:31.151Z,53.73
2019-04-27T21:10:00.614Z,57.90
2019-04-27T21:12:31.472Z,60.60
2019-04-27T21:15:01.004Z,61.67
2019-04-27T21:17:30.642Z,61.57
2019-04-27T21:20:00.259Z,57.67
2019-04-27T21:22:31.358Z,56.15
2019-04-27T21:25:01.632Z,55.28
2019-04-27T21:27:31.948Z,55.23
2019-04-27T21:30:02.751Z,49.33
2019-04-27T21:32:33.891Z,67.80
2019-04-27T21:35:03.444Z,54.08
2019-04-27T21:37:33.357Z,55.27
2019-04-27T21:40:04.665Z,51.33
2019-04-27T21:42:34.283Z,54.23
2019-04-27T21:45:05.689Z,49.17
2019-04-27T21:47:35.173Z,50.10
2019-04-27T21:50:06.513Z,48.27
2019-04-27T21:52:38.385Z,51.00
2019-04-27T21:55:11.511Z,49.23
2019-04-27T21:57:41.134Z,47.80
2019-04-27T22:00:16.406Z,49.47
2019-04-27T22:02:48.035Z,40.23
2019-04-27T22:05:17.557Z,42.90
2019-04-27T22:07:47.011Z,41.53
2019-04-27T22:10:16.552Z,40.97
2019-04-27T22:12:46.069Z,39.03
2019-04-27T22:15:15.481Z,35.37
2019-04-27T22:17:44.937Z,40.30
2019-04-27T22:20:16.489Z,35.30
2019-04-27T22:22:47.661Z,35.23
2019-04-27T22:25:18.672Z,34.53
2019-04-27T22:27:48.139Z,38.63
2019-04-27T22:30:17.780Z,106.90
2019-04-27T22:32:47.193Z,39.40
2019-04-27T22:35:16.793Z,42.10
2019-04-27T22:37:46.292Z,42.20
2019-04-27T22:40:15.513Z,42.10
2019-04-27T22:42:46.656Z,41.00
2019-04-27T22:45:17.774Z,44.20
2019-04-27T22:47:47.217Z,38.47
2019-04-27T22:50:16.843Z,42.60
2019-04-27T22:52:46.363Z,40.30
2019-04-27T22:55:16.028Z,38.47
2019-04-27T22:57:47.103Z,38.90
2019-04-27T23:00:18.627Z,37.63
2019-04-27T23:02:52.260Z,39.47
2019-04-27T23:05:21.973Z,38.35
2019-04-27T23:07:51.817Z,37.40
2019-04-27T23:10:21.442Z,40.93
2019-04-27T23:12:51.116Z,35.83
2019-04-27T23:15:22.414Z,34.10
2019-04-27T23:17:52.982Z,35.57
2019-04-27T23:20:22.615Z,41.63
2019-04-27T23:22:52.095Z,40.47
2019-04-27T23:25:21.553Z,40.63
2019-04-27T23:27:51.494Z,44.53
2019-04-27T23:30:23.240Z,42.40
2019-04-27T23:32:53.596Z,41.60
2019-04-27T23:35:23.047Z,41.77
2019-04-27T23:37:52.845Z,41.00
2019-04-27T23:40:22.678Z,39.63
2019-04-27T23:42:52.124Z,42.50
2019-04-27T23:45:22.513Z,38.65
2019-04-27T23:47:52.186Z,43.58
2019-04-27T23:50:21.997Z,44.35
2019-04-27T23:52:54.355Z,40.33
2019-04-27T23:55:25.551Z,42.63
2019-04-27T23:57:55.096Z,44.07
